LATAM B789 at Santiago on Jun 7th 2021, blew right main tyres

Last Update: June 8, 2021 / 15:25:34 GMT/Zulu time

Bookmark this article
Incident Facts

Date of incident
Jun 7, 2021

Classification
Incident

Flight number
LA-509

Destination
Santiago, Chile

Aircraft Registration
CC-BGP

ICAO Type Designator
B789

Airport ICAO Code
SCEL

A LATAM Chile Boeing 787-9, registration CC-BGP performing flight LA-509 from Miami,FL (USA) to Santiago (Chile) with 63 passengers and 11 crew, landed on Santiago's runway 17L, rolled out, vacated the runway at the end and turned onto the parallel taxiway when the aircraft became disabled with at least both outboard right hand main tyres deflated. The passengers disembarked onto the taxiway via stairs and were taken to the terminal.

The aircraft is still on the ground in Santiago about 7 hours after landing.

Metars:
SCEL 071400Z 31004KT 280V340 6000 BKN150 11/07 Q1019 NOSIG=
SCEL 071300Z 23006KT 200V320 6000 SCT120 BKN160 10/06 Q1018 NOSIG=
SCEL 071200Z 01009KT 340V050 8000 SCT100 BKN150 10/06 Q1017 NOSIG=
SCEL 071100Z 03005KT 350V080 8000 BKN130 09/06 Q1017 NOSIG=
SCEL 071000Z 02006KT 9999 BKN130 09/06 Q1018 NOSIG=
SCEL 070900Z AUTO VRB01KT 9999 OVC130/// 10/06 Q1018=
SCEL 070800Z AUTO 13004KT 9999 OVC140/// 10/06 Q1018=
Incident Facts

Date of incident
Jun 7, 2021

Classification
Incident

Flight number
LA-509

Destination
Santiago, Chile

Aircraft Registration
CC-BGP

ICAO Type Designator
B789

Airport ICAO Code
SCEL

This article is published under license from Avherald.com. © of text by Avherald.com.
Article source

You can read 2 more free articles without a subscription.

Subscribe now and continue reading without any limits!

Are you a subscriber? Login
Subscribe

Read unlimited articles and receive our daily update briefing. Gain better insights into what is happening in commercial aviation safety.

Free newsletter

Want to know more and stay ahead? Get our free weekly newsletter and join 5377 existing subscribers.

By subscribing, you accept our terms and conditions and confirm that you've read our privacy policy.

Send tip

Support AeroInside by sending a small tip amount.

Related articles

Newest articles

Subscribe today

Are you researching aviation incidents? Get access to AeroInside Insights, unlimited read access and receive the daily newsletter.

Pick your plan and subscribe

Partner

Blockaviation logo

A new way to document and demonstrate airworthiness compliance and aircraft value. Find out more.

Virtual Speech logo

ELITE Simulation Solutions is a leading global provider of Flight Simulation Training Devices, IFR training software as well as flight controls and related services. Find out more.

Get updates

Never miss an article from AeroInside. Subscribe to our free weekly newsletter and join 5377 existing subscribers.

By subscribing, you accept our terms and conditions and that you've read our privacy policy.

AeroInside Blog
Popular aircraft
Airbus A320
Boeing 737-800
Boeing 737-800 MAX
Popular airlines
American Airlines
United
Delta
Air Canada
Lufthansa
British Airways